Bay Port, Michigan
Current Conditions -  °F | °C
As of 1:16 AM on Saturday 29 Nov 2014 (Local Time) from KBAX Reporting Station
Overcast Overcast  
Wind Chill: 17°   Ceiling: 3400
Heat Index: 26°   Visibility: 10mi
Dew Point: 24°   Wind: 9mph
Humidity: 92%   Direction: 170°S
Pressure: 30.04"   Gusts: NA
Location:  43.85°N, 83.37°W
Report Text: KBAX 290616Z AUTO 17008KT 10SM OVC034 M03/M04 A3004 RMK AO2 T10331044
Loading
Personal Weather Stations






























Interactive Weather Map New forecast layout! Learn more

10-Day Weather Forecast

Advertisements
Track Severe Weather on mobile